EZY303F EGCC-EGAA
Flight info
| Callsign | EZY303F |
|---|---|
| Flight time | 0h 39m |
| Altitude | 24000 |
| Route | EKLAD Y53 WAL M146 IPSET P6 BELZU |
| Aircraft | A319/M-SDE3FGHIRWY/LB1 |
Departure
| Time | 2026-05-07 19:07 |
|---|---|
| Airport | Manchester Airport (EGCC) |
Arrival
| Time | 2026-05-07 19:46 |
|---|---|
| Airport | Belfast International Airport (EGAA) |
| Time | Latitude | Longitude | Altitude | Speed | Heading |
|---|---|---|---|---|---|
| 2026-05-07 18:30 | 53.36030 | -2.27500 | 255 ft | 0 kts | 97° |
| 2026-05-07 18:32 | 53.36031 | -2.27514 | 255 ft | 0 kts | 95° |
| 2026-05-07 18:52 | 53.36032 | -2.27528 | 255 ft | 3 kts | 95° |
| 2026-05-07 18:52 | 53.36033 | -2.27559 | 255 ft | 3 kts | 95° |
| 2026-05-07 18:53 | 53.36035 | -2.27591 | 255 ft | 3 kts | 106° |
| 2026-05-07 18:53 | 53.36045 | -2.27615 | 255 ft | 3 kts | 161° |
| 2026-05-07 18:53 | 53.36059 | -2.27617 | 255 ft | 0 kts | 185° |
| 2026-05-07 18:57 | 53.36047 | -2.27619 | 255 ft | 7 kts | 185° |
| 2026-05-07 18:57 | 53.35969 | -2.27632 | 255 ft | 14 kts | 186° |
| 2026-05-07 18:57 | 53.35860 | -2.27652 | 255 ft | 17 kts | 186° |
| 2026-05-07 18:57 | 53.35740 | -2.27652 | 255 ft | 18 kts | 163° |
| 2026-05-07 18:58 | 53.35636 | -2.27547 | 256 ft | 14 kts | 138° |
| 2026-05-07 18:58 | 53.35625 | -2.27442 | 254 ft | 16 kts | 64° |
| 2026-05-07 18:58 | 53.35700 | -2.27288 | 255 ft | 18 kts | 50° |
| 2026-05-07 18:58 | 53.35785 | -2.27117 | 255 ft | 20 kts | 51° |
| 2026-05-07 18:59 | 53.35867 | -2.26911 | 255 ft | 22 kts | 55° |
| 2026-05-07 18:59 | 53.35962 | -2.26696 | 255 ft | 24 kts | 53° |
| 2026-05-07 18:59 | 53.36041 | -2.26524 | 255 ft | 14 kts | 52° |
| 2026-05-07 18:59 | 53.36092 | -2.26415 | 255 ft | 12 kts | 51° |
| 2026-05-07 19:00 | 53.36125 | -2.26348 | 255 ft | 7 kts | 50° |
| 2026-05-07 19:00 | 53.36157 | -2.26287 | 255 ft | 8 kts | 45° |
| 2026-05-07 19:00 | 53.36207 | -2.26223 | 255 ft | 11 kts | 44° |
| 2026-05-07 19:00 | 53.36260 | -2.26116 | 255 ft | 13 kts | 56° |
| 2026-05-07 19:01 | 53.36269 | -2.26044 | 255 ft | 0 kts | 95° |
| 2026-05-07 19:04 | 53.36269 | -2.26039 | 255 ft | 2 kts | 96° |
| 2026-05-07 19:04 | 53.36277 | -2.25944 | 255 ft | 13 kts | 68° |
| 2026-05-07 19:04 | 53.36276 | -2.25796 | 255 ft | 15 kts | 125° |
| 2026-05-07 19:04 | 53.36211 | -2.25757 | 254 ft | 10 kts | 224° |
| 2026-05-07 19:05 | 53.36199 | -2.25785 | 254 ft | 0 kts | 233° |
| 2026-05-07 19:07 | 53.36156 | -2.25876 | 254 ft | 43 kts | 231° |
| 2026-05-07 19:07 | 53.35759 | -2.26694 | 265 ft | 130 kts | 231° |
| 2026-05-07 19:07 | 53.35066 | -2.28119 | 647 ft | 158 kts | 228° |
| 2026-05-07 19:07 | 53.34339 | -2.29574 | 1474 ft | 158 kts | 228° |
| 2026-05-07 19:08 | 53.33684 | -2.30996 | 2167 ft | 165 kts | 228° |
| 2026-05-07 19:08 | 53.32921 | -2.32604 | 2609 ft | 187 kts | 228° |
| 2026-05-07 19:08 | 53.32178 | -2.34520 | 3031 ft | 211 kts | 240° |
| 2026-05-07 19:08 | 53.31744 | -2.37053 | 3477 ft | 242 kts | 261° |
| 2026-05-07 19:09 | 53.31784 | -2.40012 | 4273 ft | 258 kts | 270° |
| 2026-05-07 19:09 | 53.31875 | -2.43116 | 4843 ft | 266 kts | 269° |
| 2026-05-07 19:09 | 53.32011 | -2.46168 | 4976 ft | 265 kts | 277° |
| 2026-05-07 19:09 | 53.32679 | -2.49133 | 5383 ft | 273 kts | 296° |
| 2026-05-07 19:10 | 53.33692 | -2.51843 | 6519 ft | 274 kts | 300° |
| 2026-05-07 19:10 | 53.34740 | -2.54507 | 7551 ft | 275 kts | 300° |
| 2026-05-07 19:10 | 53.35514 | -2.56456 | 8287 ft | 277 kts | 300° |
| 2026-05-07 19:10 | 53.36897 | -2.59902 | 9480 ft | 284 kts | 300° |
| 2026-05-07 19:11 | 53.38017 | -2.62673 | 10280 ft | 294 kts | 300° |
| 2026-05-07 19:11 | 53.39213 | -2.65664 | 10655 ft | 317 kts | 300° |
| 2026-05-07 19:11 | 53.40047 | -2.67769 | 11073 ft | 324 kts | 300° |
| 2026-05-07 19:11 | 53.41186 | -2.71100 | 11900 ft | 327 kts | 293° |
| 2026-05-07 19:12 | 53.42155 | -2.74538 | 12753 ft | 330 kts | 291° |
| 2026-05-07 19:12 | 53.43097 | -2.78116 | 13639 ft | 333 kts | 291° |
| 2026-05-07 19:12 | 53.44028 | -2.81741 | 14383 ft | 337 kts | 291° |
| 2026-05-07 19:12 | 53.44958 | -2.85367 | 15115 ft | 340 kts | 291° |
| 2026-05-07 19:13 | 53.45930 | -2.89122 | 15850 ft | 344 kts | 291° |
| 2026-05-07 19:13 | 53.46892 | -2.92800 | 16559 ft | 348 kts | 291° |
| 2026-05-07 19:13 | 53.47890 | -2.96590 | 17284 ft | 352 kts | 291° |
| 2026-05-07 19:13 | 53.48867 | -3.00282 | 17982 ft | 355 kts | 291° |
| 2026-05-07 19:14 | 53.49881 | -3.04118 | 18639 ft | 359 kts | 291° |
| 2026-05-07 19:14 | 53.50912 | -3.08032 | 19276 ft | 362 kts | 291° |
| 2026-05-07 19:14 | 53.51950 | -3.11983 | 19933 ft | 364 kts | 291° |
| 2026-05-07 19:14 | 53.52979 | -3.15916 | 20580 ft | 367 kts | 291° |
| 2026-05-07 19:15 | 53.54011 | -3.19857 | 21220 ft | 370 kts | 291° |
| 2026-05-07 19:15 | 53.55052 | -3.23832 | 21854 ft | 373 kts | 291° |
| 2026-05-07 19:15 | 53.56099 | -3.27840 | 22478 ft | 375 kts | 291° |
| 2026-05-07 19:15 | 53.57170 | -3.31961 | 23100 ft | 378 kts | 291° |
| 2026-05-07 19:16 | 53.58218 | -3.36013 | 23688 ft | 381 kts | 291° |
| 2026-05-07 19:16 | 53.59295 | -3.40179 | 23935 ft | 384 kts | 291° |
| 2026-05-07 19:16 | 53.60368 | -3.44327 | 24001 ft | 374 kts | 291° |
| 2026-05-07 19:16 | 53.61403 | -3.48312 | 24006 ft | 359 kts | 291° |
| 2026-05-07 19:17 | 53.62395 | -3.52155 | 24006 ft | 355 kts | 290° |
| 2026-05-07 19:17 | 53.63384 | -3.56009 | 24004 ft | 354 kts | 290° |
| 2026-05-07 19:17 | 53.64369 | -3.59859 | 24005 ft | 353 kts | 290° |
| 2026-05-07 19:17 | 53.65511 | -3.63543 | 24005 ft | 356 kts | 300° |
| 2026-05-07 19:18 | 53.66942 | -3.66969 | 24007 ft | 358 kts | 302° |
| 2026-05-07 19:18 | 53.68400 | -3.70434 | 24015 ft | 358 kts | 302° |
| 2026-05-07 19:18 | 53.69840 | -3.73869 | 24006 ft | 358 kts | 302° |
| 2026-05-07 19:18 | 53.71290 | -3.77338 | 24005 ft | 357 kts | 301° |
| 2026-05-07 19:19 | 53.72720 | -3.80773 | 24005 ft | 357 kts | 301° |
| 2026-05-07 19:19 | 53.74167 | -3.84254 | 24006 ft | 357 kts | 301° |
| 2026-05-07 19:19 | 53.75595 | -3.87698 | 24006 ft | 357 kts | 301° |
| 2026-05-07 19:19 | 53.77019 | -3.91141 | 24009 ft | 358 kts | 301° |
| 2026-05-07 19:20 | 53.78468 | -3.94638 | 24008 ft | 358 kts | 301° |
| 2026-05-07 19:20 | 53.79894 | -3.98083 | 24000 ft | 357 kts | 301° |
| 2026-05-07 19:20 | 53.80856 | -4.00408 | 24000 ft | 357 kts | 301° |
| 2026-05-07 19:20 | 53.82279 | -4.03856 | 24000 ft | 357 kts | 301° |
| 2026-05-07 19:21 | 53.83708 | -4.07329 | 24005 ft | 357 kts | 301° |
| 2026-05-07 19:21 | 53.85127 | -4.10783 | 24004 ft | 357 kts | 301° |
| 2026-05-07 19:21 | 53.86548 | -4.14239 | 24005 ft | 357 kts | 301° |
| 2026-05-07 19:21 | 53.87987 | -4.17742 | 24006 ft | 357 kts | 301° |
| 2026-05-07 19:22 | 53.89405 | -4.21213 | 24007 ft | 357 kts | 301° |
| 2026-05-07 19:22 | 53.90816 | -4.24675 | 24005 ft | 358 kts | 301° |
| 2026-05-07 19:22 | 53.92252 | -4.28196 | 24014 ft | 358 kts | 301° |
| 2026-05-07 19:22 | 53.93666 | -4.31669 | 24014 ft | 358 kts | 301° |
| 2026-05-07 19:23 | 53.95083 | -4.35145 | 24013 ft | 358 kts | 301° |
| 2026-05-07 19:23 | 53.96522 | -4.38675 | 24013 ft | 358 kts | 301° |
| 2026-05-07 19:23 | 53.97933 | -4.42149 | 24013 ft | 358 kts | 300° |
| 2026-05-07 19:23 | 53.99345 | -4.45637 | 24012 ft | 358 kts | 300° |
| 2026-05-07 19:24 | 54.00751 | -4.49118 | 24015 ft | 358 kts | 300° |
| 2026-05-07 19:24 | 54.02297 | -4.52657 | 24013 ft | 360 kts | 308° |
| 2026-05-07 19:24 | 54.03998 | -4.55799 | 24012 ft | 361 kts | 309° |
| 2026-05-07 19:24 | 54.05703 | -4.58940 | 24011 ft | 361 kts | 308° |
| 2026-05-07 19:25 | 54.07424 | -4.62125 | 24009 ft | 361 kts | 308° |
| 2026-05-07 19:25 | 54.09123 | -4.65287 | 24009 ft | 361 kts | 308° |
| 2026-05-07 19:25 | 54.10832 | -4.68479 | 24009 ft | 361 kts | 308° |
| 2026-05-07 19:25 | 54.12527 | -4.71647 | 23981 ft | 361 kts | 308° |
| 2026-05-07 19:26 | 54.14215 | -4.74810 | 23980 ft | 361 kts | 308° |
| 2026-05-07 19:26 | 54.15927 | -4.78019 | 24001 ft | 361 kts | 308° |
| 2026-05-07 19:26 | 54.17623 | -4.81195 | 23997 ft | 361 kts | 308° |
| 2026-05-07 19:26 | 54.19340 | -4.84410 | 23993 ft | 364 kts | 308° |
| 2026-05-07 19:27 | 54.21068 | -4.87661 | 23427 ft | 378 kts | 308° |
| 2026-05-07 19:27 | 54.22850 | -4.91013 | 22754 ft | 374 kts | 308° |
| 2026-05-07 19:27 | 54.24593 | -4.94282 | 22372 ft | 368 kts | 308° |
| 2026-05-07 19:27 | 54.26307 | -4.97504 | 21937 ft | 364 kts | 308° |
| 2026-05-07 19:28 | 54.27905 | -5.00511 | 21514 ft | 360 kts | 308° |
| 2026-05-07 19:28 | 54.29583 | -5.03665 | 21088 ft | 357 kts | 308° |
| 2026-05-07 19:28 | 54.31267 | -5.06845 | 20637 ft | 353 kts | 308° |
| 2026-05-07 19:28 | 54.32908 | -5.09956 | 20220 ft | 350 kts | 308° |
| 2026-05-07 19:29 | 54.34553 | -5.13081 | 19790 ft | 348 kts | 308° |
| 2026-05-07 19:29 | 54.36165 | -5.16149 | 19375 ft | 345 kts | 308° |
| 2026-05-07 19:29 | 54.37768 | -5.19201 | 18961 ft | 343 kts | 308° |
| 2026-05-07 19:29 | 54.39362 | -5.22238 | 18557 ft | 341 kts | 307° |
| 2026-05-07 19:30 | 54.40778 | -5.24942 | 18180 ft | 339 kts | 307° |
| 2026-05-07 19:30 | 54.42354 | -5.27954 | 17743 ft | 337 kts | 307° |
| 2026-05-07 19:30 | 54.43913 | -5.30932 | 17340 ft | 333 kts | 307° |
| 2026-05-07 19:30 | 54.45450 | -5.33869 | 16954 ft | 330 kts | 308° |
| 2026-05-07 19:31 | 54.46959 | -5.36666 | 16586 ft | 328 kts | 309° |
| 2026-05-07 19:31 | 54.48000 | -5.38543 | 16323 ft | 327 kts | 309° |
| 2026-05-07 19:31 | 54.50117 | -5.42287 | 15811 ft | 324 kts | 310° |
| 2026-05-07 19:31 | 54.51535 | -5.45314 | 15434 ft | 317 kts | 297° |
| 2026-05-07 19:32 | 54.52472 | -5.48681 | 15073 ft | 309 kts | 285° |
| 2026-05-07 19:32 | 54.52915 | -5.51046 | 14835 ft | 307 kts | 284° |
| 2026-05-07 19:32 | 54.53559 | -5.54514 | 14481 ft | 305 kts | 284° |
| 2026-05-07 19:32 | 54.54207 | -5.58002 | 14127 ft | 303 kts | 284° |
| 2026-05-07 19:33 | 54.54852 | -5.61468 | 13778 ft | 302 kts | 284° |
| 2026-05-07 19:33 | 54.55489 | -5.64897 | 13395 ft | 300 kts | 284° |
| 2026-05-07 19:33 | 54.56120 | -5.68290 | 13082 ft | 296 kts | 284° |
| 2026-05-07 19:33 | 54.56750 | -5.71675 | 12772 ft | 291 kts | 284° |
| 2026-05-07 19:34 | 54.57369 | -5.75008 | 12429 ft | 289 kts | 284° |
| 2026-05-07 19:34 | 54.57978 | -5.78300 | 12077 ft | 287 kts | 284° |
| 2026-05-07 19:34 | 54.58587 | -5.81606 | 11728 ft | 285 kts | 284° |
| 2026-05-07 19:34 | 54.59185 | -5.84859 | 11381 ft | 283 kts | 284° |
| 2026-05-07 19:35 | 54.59780 | -5.88098 | 11027 ft | 282 kts | 284° |
| 2026-05-07 19:35 | 54.60374 | -5.91344 | 10672 ft | 280 kts | 284° |
| 2026-05-07 19:35 | 54.60957 | -5.94547 | 10323 ft | 279 kts | 284° |
| 2026-05-07 19:35 | 54.61538 | -5.97743 | 9942 ft | 278 kts | 284° |
| 2026-05-07 19:36 | 54.62110 | -6.00890 | 9568 ft | 276 kts | 284° |
| 2026-05-07 19:36 | 54.62674 | -6.03982 | 9204 ft | 273 kts | 284° |
| 2026-05-07 19:36 | 54.63244 | -6.07110 | 8794 ft | 271 kts | 284° |
| 2026-05-07 19:36 | 54.63805 | -6.10203 | 8446 ft | 268 kts | 284° |
| 2026-05-07 19:37 | 54.64353 | -6.13226 | 8330 ft | 257 kts | 284° |
| 2026-05-07 19:37 | 54.64862 | -6.16033 | 8241 ft | 244 kts | 283° |
| 2026-05-07 19:37 | 54.65356 | -6.18753 | 8149 ft | 232 kts | 283° |
| 2026-05-07 19:37 | 54.65834 | -6.21404 | 8047 ft | 227 kts | 283° |
| 2026-05-07 19:38 | 54.66299 | -6.24003 | 7949 ft | 226 kts | 283° |
| 2026-05-07 19:38 | 54.66965 | -6.26512 | 7843 ft | 230 kts | 299° |
| 2026-05-07 19:38 | 54.67995 | -6.28658 | 7687 ft | 234 kts | 311° |
| 2026-05-07 19:38 | 54.69196 | -6.30586 | 7537 ft | 234 kts | 313° |
| 2026-05-07 19:39 | 54.70368 | -6.32401 | 7389 ft | 234 kts | 313° |
| 2026-05-07 19:39 | 54.71744 | -6.34107 | 7217 ft | 237 kts | 326° |
| 2026-05-07 19:39 | 54.73200 | -6.35448 | 7072 ft | 237 kts | 328° |
| 2026-05-07 19:39 | 54.74664 | -6.36742 | 6870 ft | 236 kts | 328° |
| 2026-05-07 19:40 | 54.76132 | -6.38034 | 6637 ft | 232 kts | 328° |
| 2026-05-07 19:40 | 54.77549 | -6.39269 | 6512 ft | 225 kts | 329° |
| 2026-05-07 19:40 | 54.79081 | -6.39960 | 6037 ft | 234 kts | 352° |
| 2026-05-07 19:40 | 54.80772 | -6.39923 | 5091 ft | 253 kts | 11° |
| 2026-05-07 19:41 | 54.82448 | -6.38888 | 4709 ft | 247 kts | 21° |
| 2026-05-07 19:41 | 54.83854 | -6.37359 | 4537 ft | 232 kts | 39° |
| 2026-05-07 19:41 | 54.84889 | -6.35240 | 4077 ft | 231 kts | 71° |
| 2026-05-07 19:41 | 54.84898 | -6.32662 | 3936 ft | 202 kts | 119° |
| 2026-05-07 19:42 | 54.83950 | -6.31081 | 3877 ft | 187 kts | 165° |
| 2026-05-07 19:42 | 54.82707 | -6.31204 | 3695 ft | 177 kts | 201° |
| 2026-05-07 19:42 | 54.81493 | -6.31533 | 3470 ft | 183 kts | 174° |
| 2026-05-07 19:42 | 54.80265 | -6.30906 | 3239 ft | 183 kts | 168° |
| 2026-05-07 19:43 | 54.79024 | -6.30284 | 2993 ft | 183 kts | 167° |
| 2026-05-07 19:43 | 54.77808 | -6.29627 | 2738 ft | 182 kts | 167° |
| 2026-05-07 19:43 | 54.76601 | -6.28954 | 2486 ft | 182 kts | 166° |
| 2026-05-07 19:43 | 54.75396 | -6.28274 | 2232 ft | 175 kts | 166° |
| 2026-05-07 19:44 | 54.74274 | -6.27640 | 2002 ft | 165 kts | 166° |
| 2026-05-07 19:44 | 54.73198 | -6.27033 | 1774 ft | 160 kts | 166° |
| 2026-05-07 19:44 | 54.72136 | -6.26435 | 1557 ft | 157 kts | 166° |
| 2026-05-07 19:44 | 54.71107 | -6.25855 | 1347 ft | 150 kts | 166° |
| 2026-05-07 19:45 | 54.70170 | -6.25324 | 1136 ft | 135 kts | 167° |
| 2026-05-07 19:45 | 54.69313 | -6.24843 | 942 ft | 127 kts | 165° |
| 2026-05-07 19:45 | 54.68749 | -6.24513 | 863 ft | 126 kts | 163° |
| 2026-05-07 19:45 | 54.67914 | -6.24050 | 681 ft | 126 kts | 164° |
| 2026-05-07 19:46 | 54.67066 | -6.23571 | 544 ft | 126 kts | 163° |
| 2026-05-07 19:46 | 54.66232 | -6.23104 | 384 ft | 125 kts | 162° |
| 2026-05-07 19:46 | 54.65411 | -6.22638 | 275 ft | 117 kts | 161° |
| 2026-05-07 19:46 | 54.64836 | -6.22327 | 272 ft | 43 kts | 162° |
| 2026-05-07 19:47 | 54.64601 | -6.22196 | 272 ft | 28 kts | 162° |
| 2026-05-07 19:47 | 54.64514 | -6.22079 | 272 ft | 15 kts | 72° |
| 2026-05-07 19:47 | 54.64604 | -6.22042 | 272 ft | 15 kts | 348° |
| 2026-05-07 19:47 | 54.64704 | -6.22086 | 272 ft | 15 kts | 339° |
| 2026-05-07 19:48 | 54.64802 | -6.22149 | 272 ft | 15 kts | 342° |
| 2026-05-07 19:48 | 54.64908 | -6.22201 | 276 ft | 16 kts | 343° |
| 2026-05-07 19:48 | 54.65014 | -6.22269 | 274 ft | 16 kts | 339° |
| 2026-05-07 19:48 | 54.65127 | -6.22268 | 274 ft | 16 kts | 29° |